createdAt,value
2017-11-17T00:01:35.684Z,6.80
2017-11-17T00:04:04.028Z,6.80
2017-11-17T00:06:31.510Z,6.87
2017-11-17T00:08:59.783Z,7.45
2017-11-17T00:11:28.039Z,6.97
2017-11-17T00:13:55.548Z,6.12
2017-11-17T00:16:23.034Z,6.95
2017-11-17T00:18:50.525Z,7.27
2017-11-17T00:21:18.922Z,7.47
2017-11-17T00:23:47.310Z,6.95
2017-11-17T00:26:14.890Z,7.68
2017-11-17T00:28:42.375Z,6.53
2017-11-17T00:31:09.868Z,7.03
2017-11-17T00:33:37.343Z,6.18
2017-11-17T00:36:05.052Z,6.78
2017-11-17T00:38:33.604Z,6.35
2017-11-17T00:41:01.459Z,7.80
2017-11-17T00:43:30.872Z,5.85
2017-11-17T00:45:58.469Z,6.18
2017-11-17T00:48:26.061Z,5.60
2017-11-17T00:50:54.456Z,6.97
2017-11-17T00:53:21.946Z,6.82
2017-11-17T00:55:49.429Z,5.67
2017-11-17T00:58:16.900Z,5.80
2017-11-17T01:00:45.143Z,6.93
2017-11-17T01:03:12.675Z,5.55
2017-11-17T01:05:40.241Z,6.07
2017-11-17T01:08:07.829Z,5.75
2017-11-17T01:10:35.297Z,6.40
2017-11-17T01:13:03.554Z,6.50
2017-11-17T01:15:31.027Z,5.82
2017-11-17T01:17:59.280Z,5.07
2017-11-17T01:20:26.847Z,5.50
2017-11-17T01:22:54.896Z,6.60
2017-11-17T01:25:23.134Z,6.37
2017-11-17T01:27:50.663Z,5.72
2017-11-17T01:30:18.127Z,5.80
2017-11-17T01:32:45.603Z,5.75
2017-11-17T01:35:13.088Z,6.20
2017-11-17T01:37:40.702Z,6.35
2017-11-17T01:40:09.598Z,6.45
2017-11-17T01:42:38.654Z,6.50
2017-11-17T01:45:06.899Z,6.57
2017-11-17T01:47:34.413Z,5.83
2017-11-17T01:50:02.224Z,5.35
2017-11-17T01:52:29.790Z,6.05
2017-11-17T01:54:57.264Z,5.40
2017-11-17T01:57:24.739Z,5.93
2017-11-17T01:59:52.221Z,6.15
2017-11-17T02:02:20.473Z,5.75
2017-11-17T02:04:47.951Z,5.87
2017-11-17T02:07:15.501Z,5.75
2017-11-17T02:09:43.856Z,5.43
2017-11-17T02:12:11.356Z,5.80
2017-11-17T02:14:38.835Z,5.95
2017-11-17T02:17:06.315Z,6.57
2017-11-17T02:19:33.887Z,5.68
2017-11-17T02:22:01.540Z,5.57
2017-11-17T02:24:29.103Z,5.15
2017-11-17T02:26:56.567Z,5.05
2017-11-17T02:29:24.064Z,5.82
2017-11-17T02:31:51.537Z,6.40
2017-11-17T02:34:19.847Z,5.47
2017-11-17T02:36:47.371Z,5.30
2017-11-17T02:39:15.911Z,6.93
2017-11-17T02:41:44.416Z,6.03
2017-11-17T02:44:12.279Z,6.35
2017-11-17T02:46:40.022Z,5.75
2017-11-17T02:49:07.502Z,6.18
2017-11-17T02:51:34.971Z,5.40
2017-11-17T02:54:02.485Z,6.50
2017-11-17T02:56:30.065Z,5.68
2017-11-17T02:58:58.343Z,5.97
2017-11-17T03:01:25.977Z,6.40
2017-11-17T03:03:53.536Z,5.93
2017-11-17T03:06:21.020Z,5.82
2017-11-17T03:08:48.512Z,5.95
2017-11-17T03:11:16.041Z,6.32
2017-11-17T03:13:43.652Z,6.77
2017-11-17T03:16:11.323Z,6.05
2017-11-17T03:18:38.833Z,6.07
2017-11-17T03:21:06.328Z,5.95
2017-11-17T03:23:33.843Z,5.65
2017-11-17T03:26:01.325Z,5.57
2017-11-17T03:28:28.829Z,6.73
2017-11-17T03:30:57.190Z,5.53
2017-11-17T03:33:24.972Z,6.10
2017-11-17T03:35:53.451Z,5.73
2017-11-17T03:38:20.980Z,5.82
2017-11-17T03:40:48.463Z,6.10
2017-11-17T03:43:16.714Z,7.07
2017-11-17T03:45:44.207Z,6.45
2017-11-17T03:48:12.460Z,6.18
2017-11-17T03:50:39.949Z,5.60
2017-11-17T03:53:08.204Z,5.80
2017-11-17T03:55:36.467Z,6.35
2017-11-17T03:58:04.036Z,6.05
2017-11-17T04:00:32.376Z,6.20
2017-11-17T04:02:59.866Z,6.75
2017-11-17T04:05:27.340Z,6.47
2017-11-17T04:07:55.587Z,7.35
2017-11-17T04:10:23.085Z,6.32
2017-11-17T04:12:50.560Z,6.30
2017-11-17T04:15:18.103Z,6.85
2017-11-17T04:17:45.679Z,6.80
2017-11-17T04:20:13.150Z,5.90
2017-11-17T04:22:40.645Z,7.57
2017-11-17T04:25:08.175Z,6.93
2017-11-17T04:27:35.756Z,7.10
2017-11-17T04:30:03.638Z,6.28
2017-11-17T04:32:31.338Z,6.78
2017-11-17T04:34:58.812Z,7.10
2017-11-17T04:37:26.296Z,7.10
2017-11-17T04:39:53.785Z,6.97
2017-11-17T04:42:21.260Z,6.68
2017-11-17T04:44:49.002Z,7.20
2017-11-17T04:47:17.287Z,7.10
2017-11-17T04:49:44.765Z,7.12
2017-11-17T04:52:12.254Z,7.62
2017-11-17T04:54:39.736Z,7.25
2017-11-17T04:57:08.017Z,6.55
2017-11-17T04:59:36.275Z,7.15
2017-11-17T05:02:03.829Z,7.35
2017-11-17T05:04:31.381Z,6.65
2017-11-17T05:06:58.871Z,7.40
2017-11-17T05:09:26.365Z,7.78
2017-11-17T05:11:55.759Z,7.30
2017-11-17T05:14:23.270Z,7.90
2017-11-17T05:16:50.755Z,7.90
2017-11-17T05:19:19.004Z,7.15
2017-11-17T05:21:47.867Z,7.07
2017-11-17T05:24:15.351Z,7.70
2017-11-17T05:26:43.736Z,6.90
2017-11-17T05:29:12.354Z,8.25
2017-11-17T05:31:40.690Z,7.47
2017-11-17T05:34:08.404Z,7.62
2017-11-17T05:36:35.942Z,7.95
2017-11-17T05:39:03.445Z,7.62
2017-11-17T05:41:30.912Z,7.57
2017-11-17T05:43:58.415Z,6.85
2017-11-17T05:46:26.699Z,7.50
2017-11-17T05:48:54.221Z,6.80
2017-11-17T05:51:22.551Z,6.80
2017-11-17T05:53:50.115Z,6.53
2017-11-17T05:56:17.636Z,6.75
2017-11-17T05:58:45.151Z,7.22
2017-11-17T06:01:12.641Z,7.45
2017-11-17T06:03:40.143Z,6.00
2017-11-17T06:06:07.720Z,7.57
2017-11-17T06:08:35.275Z,7.15
2017-11-17T06:11:02.839Z,7.20
2017-11-17T06:13:30.314Z,6.50
2017-11-17T06:15:58.559Z,6.20
2017-11-17T06:18:26.050Z,7.10
2017-11-17T06:20:53.530Z,6.50
2017-11-17T06:23:21.080Z,7.30
2017-11-17T06:25:49.024Z,6.75
2017-11-17T06:28:16.584Z,7.50
2017-11-17T06:30:44.071Z,6.68
2017-11-17T06:33:11.554Z,7.15
2017-11-17T06:35:39.042Z,6.85
2017-11-17T06:38:06.515Z,6.82
2017-11-17T06:40:34.959Z,6.53
2017-11-17T06:43:02.498Z,6.10
2017-11-17T06:45:29.975Z,6.78
2017-11-17T06:47:57.475Z,7.32
2017-11-17T06:50:25.709Z,6.65
2017-11-17T06:52:53.205Z,8.32
2017-11-17T06:55:21.470Z,6.50
2017-11-17T06:57:48.962Z,6.05
2017-11-17T07:00:16.459Z,6.53
2017-11-17T07:02:44.040Z,6.60
2017-11-17T07:05:11.514Z,7.25
2017-11-17T07:07:39.751Z,6.70
2017-11-17T07:10:07.242Z,7.10
2017-11-17T07:12:35.483Z,6.00
2017-11-17T07:15:03.145Z,6.33
2017-11-17T07:17:30.872Z,6.57
2017-11-17T07:19:58.620Z,7.03
2017-11-17T07:22:26.231Z,8.10
2017-11-17T07:24:53.709Z,9.18
2017-11-17T07:27:21.195Z,10.60
2017-11-17T07:29:48.696Z,9.40
2017-11-17T07:32:16.223Z,11.27
2017-11-17T07:34:43.892Z,9.47
2017-11-17T07:37:11.463Z,10.00
2017-11-17T07:39:38.962Z,9.10
2017-11-17T07:42:06.460Z,9.50
2017-11-17T07:44:33.941Z,10.80
2017-11-17T07:47:01.433Z,10.07
2017-11-17T07:49:29.018Z,10.67
2017-11-17T07:51:57.354Z,11.70
2017-11-17T07:54:24.976Z,9.30
2017-11-17T07:56:52.451Z,12.23
2017-11-17T07:59:19.935Z,12.80
2017-11-17T08:01:47.428Z,11.33
2017-11-17T08:04:14.939Z,10.47
2017-11-17T08:06:44.279Z,10.00
2017-11-17T08:09:12.781Z,9.97
2017-11-17T08:11:40.508Z,11.13
2017-11-17T08:14:08.137Z,8.40
2017-11-17T08:16:35.611Z,10.43
2017-11-17T08:19:03.106Z,7.97
2017-11-17T08:21:30.605Z,9.13
2017-11-17T08:23:58.075Z,10.93
2017-11-17T08:26:25.732Z,8.97
2017-11-17T08:28:53.250Z,7.77
2017-11-17T08:31:20.750Z,8.60
2017-11-17T08:33:48.249Z,7.73
2017-11-17T08:36:15.752Z,7.70
2017-11-17T08:38:43.222Z,8.93
2017-11-17T08:41:10.699Z,8.03
2017-11-17T08:43:38.218Z,7.60
2017-11-17T08:46:05.825Z,7.90
2017-11-17T08:48:33.295Z,7.78
2017-11-17T08:51:00.790Z,8.35
2017-11-17T08:53:28.262Z,7.55
2017-11-17T08:56:06.404Z,7.80
2017-11-17T08:58:34.661Z,7.45
2017-11-17T09:01:02.155Z,7.80
2017-11-17T09:03:29.711Z,9.50
2017-11-17T09:05:57.196Z,7.80
2017-11-17T09:08:24.732Z,7.47
2017-11-17T09:10:52.289Z,7.00
2017-11-17T09:13:20.528Z,7.10
2017-11-17T09:15:48.016Z,7.90
2017-11-17T09:18:16.269Z,8.07
2017-11-17T09:20:43.761Z,7.20
2017-11-17T09:23:11.328Z,8.20
2017-11-17T09:25:39.304Z,6.23
2017-11-17T09:28:06.863Z,7.50
2017-11-17T09:30:34.399Z,7.35
2017-11-17T09:33:01.879Z,7.70
2017-11-17T09:35:29.381Z,7.50
2017-11-17T09:37:56.896Z,6.45
2017-11-17T09:40:24.468Z,7.45
2017-11-17T09:42:51.976Z,6.97
2017-11-17T09:45:20.252Z,7.37
2017-11-17T09:47:48.492Z,7.90
2017-11-17T09:50:16.043Z,7.53
2017-11-17T09:52:43.538Z,7.03
2017-11-17T09:55:11.776Z,7.93
2017-11-17T09:57:39.295Z,7.10
2017-11-17T10:00:07.020Z,7.35
2017-11-17T10:02:35.431Z,8.25
2017-11-17T10:05:03.024Z,8.83
2017-11-17T10:07:30.487Z,7.27
2017-11-17T10:09:57.998Z,7.23
2017-11-17T10:12:25.516Z,6.80
2017-11-17T10:14:53.543Z,8.10
2017-11-17T10:17:21.232Z,7.23
2017-11-17T10:19:50.060Z,7.45
2017-11-17T10:22:18.629Z,6.78
2017-11-17T10:24:46.343Z,7.00
2017-11-17T10:27:14.003Z,7.63
2017-11-17T10:29:41.471Z,8.03
2017-11-17T10:32:08.958Z,8.70
2017-11-17T10:34:36.440Z,6.77
2017-11-17T10:37:04.701Z,6.47
2017-11-17T10:39:32.196Z,7.53
2017-11-17T10:41:59.880Z,7.97
2017-11-17T10:44:27.407Z,6.78
2017-11-17T10:46:55.664Z,6.45
2017-11-17T10:49:23.136Z,6.77
2017-11-17T10:51:50.633Z,7.07
2017-11-17T10:54:18.129Z,6.83
2017-11-17T10:56:45.637Z,6.63
2017-11-17T10:59:19.001Z,7.13
2017-11-17T11:01:47.255Z,7.12
2017-11-17T11:04:15.511Z,7.67
2017-11-17T11:06:43.008Z,6.82
2017-11-17T11:09:11.248Z,7.00
2017-11-17T11:11:44.327Z,6.70
2017-11-17T11:14:11.923Z,8.00
2017-11-17T11:16:39.452Z,7.77
2017-11-17T11:19:07.710Z,6.87
2017-11-17T11:21:35.203Z,7.60
2017-11-17T11:24:03.444Z,7.77
2017-11-17T11:26:30.928Z,8.00
2017-11-17T11:28:59.204Z,6.90
2017-11-17T11:31:26.771Z,7.90
2017-11-17T11:33:55.026Z,7.67
2017-11-17T11:36:22.647Z,8.10
2017-11-17T11:38:50.116Z,8.07
2017-11-17T11:41:17.630Z,7.72
2017-11-17T11:43:45.092Z,8.40
2017-11-17T11:46:12.596Z,7.70
2017-11-17T11:48:41.524Z,8.65
2017-11-17T11:51:09.357Z,7.90
2017-11-17T11:53:37.031Z,10.40
2017-11-17T11:56:04.506Z,11.05
2017-11-17T11:58:31.984Z,10.73
2017-11-17T12:00:59.484Z,126.70
2017-11-17T12:03:27.025Z,109.10
2017-11-17T12:05:54.591Z,462.93
2017-11-17T12:08:22.168Z,362.70
2017-11-17T12:10:49.672Z,306.30
2017-11-17T12:13:17.927Z,286.07
2017-11-17T12:15:45.420Z,249.20
2017-11-17T12:18:12.927Z,210.30
2017-11-17T12:20:40.445Z,216.10
2017-11-17T12:23:07.952Z,219.83
2017-11-17T12:25:35.501Z,205.87
2017-11-17T12:28:03.012Z,199.20
2017-11-17T12:30:30.494Z,193.53
2017-11-17T12:32:57.972Z,191.90
2017-11-17T12:35:25.475Z,196.13
2017-11-17T12:37:53.207Z,171.97
2017-11-17T12:40:20.835Z,176.10
2017-11-17T12:42:48.340Z,186.27
2017-11-17T12:45:16.587Z,167.97
2017-11-17T12:47:44.083Z,163.30
2017-11-17T12:50:11.572Z,153.10
2017-11-17T12:52:39.067Z,209.63
2017-11-17T12:55:06.657Z,166.67
2017-11-17T12:57:34.246Z,155.13
2017-11-17T13:00:01.743Z,153.13
2017-11-17T13:02:29.235Z,146.45
2017-11-17T13:04:56.819Z,133.90
2017-11-17T13:07:24.345Z,131.67
2017-11-17T13:09:51.928Z,133.83
2017-11-17T13:12:19.523Z,128.30
2017-11-17T13:14:47.016Z,125.40
2017-11-17T13:17:15.299Z,119.97
2017-11-17T13:19:42.784Z,117.20
2017-11-17T13:22:10.372Z,113.43
2017-11-17T13:24:38.031Z,110.77
2017-11-17T13:27:05.655Z,84.83
2017-11-17T13:29:33.251Z,96.93
2017-11-17T13:32:00.734Z,90.13
2017-11-17T13:34:29.858Z,81.70
2017-11-17T13:36:58.999Z,76.67
2017-11-17T13:39:28.185Z,59.17
2017-11-17T13:41:57.428Z,66.80
2017-11-17T13:44:26.761Z,64.17
2017-11-17T13:46:56.969Z,62.03
2017-11-17T13:49:26.244Z,51.92
2017-11-17T13:51:55.400Z,55.87
2017-11-17T13:54:24.528Z,53.33
2017-11-17T13:56:53.676Z,45.97
2017-11-17T13:59:22.809Z,44.33
2017-11-17T14:01:51.943Z,38.00
2017-11-17T14:04:21.075Z,36.67
2017-11-17T14:06:50.214Z,37.00
2017-11-17T14:09:19.372Z,34.27
2017-11-17T14:11:48.523Z,35.97
2017-11-17T14:14:17.795Z,102.87
2017-11-17T14:16:47.068Z,75.43
2017-11-17T14:19:16.454Z,51.97
2017-11-17T14:21:45.552Z,43.30
2017-11-17T14:24:14.705Z,46.60
2017-11-17T14:26:43.851Z,89.07
2017-11-17T14:29:12.987Z,63.60
2017-11-17T14:31:42.128Z,64.07
2017-11-17T14:34:11.265Z,46.00
2017-11-17T14:36:40.411Z,51.25
2017-11-17T14:39:09.556Z,80.12
2017-11-17T14:41:38.760Z,79.63
2017-11-17T14:44:07.903Z,59.53
2017-11-17T14:46:37.057Z,44.67
2017-11-17T14:49:06.241Z,36.30
2017-11-17T14:51:35.483Z,32.78
2017-11-17T14:57:02.742Z,26.67
2017-11-17T14:59:31.908Z,27.50
2017-11-17T15:02:01.039Z,26.33
2017-11-17T15:04:30.183Z,31.20
2017-11-17T15:06:59.317Z,71.43
2017-11-17T15:09:28.450Z,73.30
2017-11-17T15:11:57.579Z,38.20
2017-11-17T15:14:26.811Z,27.53
2017-11-17T15:16:55.962Z,30.23
2017-11-17T15:19:25.095Z,23.10
2017-11-17T15:21:54.222Z,24.33
2017-11-17T15:24:23.356Z,22.93
2017-11-17T15:26:52.616Z,23.17
2017-11-17T15:29:21.875Z,23.97
2017-11-17T15:31:51.146Z,18.63
2017-11-17T15:34:20.271Z,20.40
2017-11-17T15:36:49.492Z,18.13
2017-11-17T15:39:18.687Z,19.00
2017-11-17T15:41:47.834Z,18.98
2017-11-17T15:44:16.962Z,19.20
2017-11-17T15:46:46.167Z,17.03
2017-11-17T15:49:15.312Z,16.50
2017-11-17T15:51:44.443Z,18.43
2017-11-17T15:54:14.671Z,19.90
2017-11-17T15:56:43.815Z,28.33
2017-11-17T15:59:13.004Z,28.13
2017-11-17T16:01:42.175Z,28.97
2017-11-17T16:04:11.348Z,47.85
2017-11-17T16:06:40.563Z,37.10
2017-11-17T16:09:09.836Z,36.33
2017-11-17T16:11:39.075Z,40.57
2017-11-17T16:14:08.208Z,36.60
2017-11-17T16:16:37.367Z,42.23
2017-11-17T16:19:06.490Z,60.17
2017-11-17T16:21:35.641Z,54.00
2017-11-17T16:24:04.784Z,48.80
2017-11-17T16:26:33.906Z,57.20
2017-11-17T16:29:03.058Z,44.47
2017-11-17T16:31:32.187Z,46.03
2017-11-17T16:34:01.373Z,32.57
2017-11-17T16:36:30.575Z,27.33
2017-11-17T16:38:59.868Z,24.70
2017-11-17T16:41:29.211Z,26.70
2017-11-17T16:43:58.435Z,24.03
2017-11-17T16:46:27.652Z,26.37
2017-11-17T16:48:56.792Z,22.75
2017-11-17T16:51:25.943Z,22.17
2017-11-17T16:53:55.084Z,22.62
2017-11-17T16:56:24.220Z,24.03
2017-11-17T16:58:53.364Z,20.20
2017-11-17T17:01:22.483Z,21.93
2017-11-17T17:03:51.608Z,19.87
2017-11-17T17:06:20.727Z,20.87
2017-11-17T17:08:49.860Z,20.63
2017-11-17T17:11:19.011Z,19.80
2017-11-17T17:13:48.225Z,20.70
2017-11-17T17:16:17.399Z,18.63
2017-11-17T17:18:46.721Z,22.40
2017-11-17T17:21:15.863Z,19.52
2017-11-17T17:23:45.013Z,19.10
2017-11-17T17:26:14.154Z,17.90
2017-11-17T17:28:43.309Z,18.33
2017-11-17T17:31:12.447Z,16.93
2017-11-17T17:33:41.596Z,17.90
2017-11-17T17:36:11.290Z,17.90
2017-11-17T17:38:40.443Z,20.33
2017-11-17T17:41:09.563Z,17.83
2017-11-17T17:43:38.765Z,18.50
2017-11-17T17:46:07.884Z,18.60
2017-11-17T17:48:37.099Z,16.70
2017-11-17T17:51:06.323Z,17.48
2017-11-17T17:53:35.567Z,15.87
2017-11-17T17:56:04.719Z,17.97
2017-11-17T17:58:33.850Z,17.03
2017-11-17T18:01:02.982Z,17.63
2017-11-17T18:03:32.112Z,19.07
2017-11-17T18:06:01.242Z,18.52
2017-11-17T18:08:30.380Z,18.43
2017-11-17T18:10:59.523Z,18.53
2017-11-17T18:13:28.724Z,18.47
2017-11-17T18:15:57.871Z,17.60
2017-11-17T18:18:27.040Z,16.43
2017-11-17T18:20:56.175Z,16.33
2017-11-17T18:23:25.376Z,17.50
2017-11-17T18:25:54.566Z,18.47
2017-11-17T18:28:23.824Z,19.73
2017-11-17T18:30:53.019Z,20.37
2017-11-17T18:33:22.153Z,19.43
2017-11-17T18:35:51.385Z,18.47
2017-11-17T18:38:20.544Z,16.50
2017-11-17T18:40:49.681Z,18.90
2017-11-17T18:43:18.871Z,19.73
2017-11-17T18:45:47.955Z,21.10
2017-11-17T18:48:17.109Z,20.93
2017-11-17T18:50:46.231Z,19.50
2017-11-17T18:53:15.375Z,19.73
2017-11-17T18:55:44.612Z,19.03
2017-11-17T18:58:13.744Z,18.73
2017-11-17T19:00:42.842Z,20.00
2017-11-17T19:03:12.024Z,20.07
2017-11-17T19:05:41.216Z,19.85
2017-11-17T19:08:10.389Z,21.73
2017-11-17T19:10:39.619Z,21.10
2017-11-17T19:13:08.722Z,19.97
2017-11-17T19:15:37.867Z,17.63
2017-11-17T19:18:06.983Z,19.53
2017-11-17T19:20:36.129Z,17.77
2017-11-17T19:23:05.280Z,17.60
2017-11-17T19:25:34.483Z,15.40
2017-11-17T19:28:03.634Z,16.93
2017-11-17T19:30:32.855Z,19.50
2017-11-17T19:33:02.024Z,15.00
2017-11-17T19:35:31.279Z,17.50
2017-11-17T19:38:00.496Z,15.20
2017-11-17T19:40:29.675Z,16.20
2017-11-17T19:42:58.849Z,14.70
2017-11-17T19:45:28.044Z,18.07
2017-11-17T19:47:57.294Z,16.10
2017-11-17T19:50:26.432Z,15.67
2017-11-17T19:52:55.677Z,17.03
2017-11-17T19:55:24.823Z,16.58
2017-11-17T19:57:54.114Z,16.42
2017-11-17T20:00:23.324Z,17.67
2017-11-17T20:02:52.546Z,17.25
2017-11-17T20:05:21.753Z,16.23
2017-11-17T20:07:50.961Z,15.40
2017-11-17T20:10:20.108Z,16.90
2017-11-17T20:12:49.231Z,16.63
2017-11-17T20:15:18.459Z,17.40
2017-11-17T20:17:47.643Z,17.23
2017-11-17T20:20:16.940Z,16.73
2017-11-17T20:22:46.248Z,16.70
2017-11-17T20:25:15.750Z,17.30
2017-11-17T20:27:44.951Z,18.43
2017-11-17T20:30:14.154Z,17.10
2017-11-17T20:32:43.365Z,15.70
2017-11-17T20:35:12.596Z,17.40
2017-11-17T20:37:41.742Z,16.87
2017-11-17T20:40:10.863Z,16.23
2017-11-17T20:42:40.028Z,16.25
2017-11-17T20:45:09.216Z,16.07
2017-11-17T20:47:38.420Z,18.10
2017-11-17T20:50:07.593Z,16.23
2017-11-17T20:52:37.101Z,16.60
2017-11-17T20:55:06.286Z,15.93
2017-11-17T20:57:35.623Z,14.30
2017-11-17T21:00:04.853Z,15.83
2017-11-17T21:02:34.153Z,16.25
2017-11-17T21:05:04.206Z,15.15
2017-11-17T21:07:33.353Z,15.60
2017-11-17T21:10:02.500Z,14.57
2017-11-17T21:12:31.787Z,14.45
2017-11-17T21:15:01.011Z,15.50
2017-11-17T21:17:30.154Z,14.52
2017-11-17T21:19:59.286Z,13.50
2017-11-17T21:22:28.510Z,15.63
2017-11-17T21:24:57.722Z,14.82
2017-11-17T21:27:26.925Z,13.50
2017-11-17T21:29:56.298Z,13.60
2017-11-17T21:32:25.564Z,14.07
2017-11-17T21:34:54.696Z,14.00
2017-11-17T21:37:23.859Z,13.40
2017-11-17T21:39:52.979Z,14.13
2017-11-17T21:42:22.132Z,14.23
2017-11-17T21:44:51.278Z,13.80
2017-11-17T21:47:20.414Z,14.50
2017-11-17T21:49:49.542Z,15.13
2017-11-17T21:52:18.800Z,13.83
2017-11-17T21:54:48.016Z,15.40
2017-11-17T21:57:17.173Z,14.02
2017-11-17T21:59:46.523Z,13.50
2017-11-17T22:02:15.826Z,13.13
2017-11-17T22:04:45.165Z,12.52
2017-11-17T22:07:14.805Z,13.45
2017-11-17T22:09:44.127Z,12.40
2017-11-17T22:12:13.283Z,12.70
2017-11-17T22:14:42.511Z,13.05
2017-11-17T22:17:11.655Z,10.90
2017-11-17T22:19:40.803Z,11.60
2017-11-17T22:22:09.949Z,11.98
2017-11-17T22:24:39.087Z,10.98
2017-11-17T22:27:08.219Z,12.85
2017-11-17T22:29:37.407Z,11.55
2017-11-17T22:32:06.567Z,11.38
2017-11-17T22:34:35.702Z,10.40
2017-11-17T22:37:04.942Z,11.30
2017-11-17T22:39:34.150Z,12.02
2017-11-17T22:42:03.401Z,11.88
2017-11-17T22:44:32.517Z,10.02
2017-11-17T22:47:01.683Z,11.02
2017-11-17T22:49:30.815Z,10.75
2017-11-17T22:51:59.989Z,12.52
2017-11-17T22:54:29.132Z,11.25
2017-11-17T22:56:58.271Z,11.75
2017-11-17T22:59:27.406Z,10.63
2017-11-17T23:01:56.542Z,11.10
2017-11-17T23:04:25.691Z,12.45
2017-11-17T23:06:54.826Z,11.82
2017-11-17T23:09:23.966Z,13.70
2017-11-17T23:11:53.102Z,12.73
2017-11-17T23:14:22.324Z,13.98
2017-11-17T23:16:51.491Z,13.95
2017-11-17T23:19:20.685Z,12.00
2017-11-17T23:21:49.954Z,13.10
2017-11-17T23:24:19.096Z,13.55
2017-11-17T23:26:48.234Z,11.60
2017-11-17T23:29:17.379Z,11.82
2017-11-17T23:31:46.506Z,12.40
2017-11-17T23:34:15.651Z,12.60
2017-11-17T23:36:44.775Z,12.63
2017-11-17T23:39:13.927Z,11.40
2017-11-17T23:41:43.058Z,13.90
2017-11-17T23:44:12.196Z,12.75
2017-11-17T23:46:41.330Z,13.43
2017-11-17T23:49:10.791Z,12.85
2017-11-17T23:51:39.919Z,12.73
2017-11-17T23:54:09.063Z,13.70
2017-11-17T23:56:38.304Z,13.20
2017-11-17T23:59:07.592Z,13.90
